Ana Sayfa
METAR-TAF:

METAR-TAF

Havaalanları :

Al Wajh, Suudi Arabistan

Enlem: 26-12N, Boylam: 036-28E, yükseklik: 20 m

Güncel hava durumu gözlemi

Rapor saat 07:00 UTC de 1 saat ve 19 dakika önce yapıldı.
Rüzgar güneybatıdan 4 kt
Sıcaklık 32°C
Nem 59%
Basınç 1003 hPa
Görüş mesafesi 10 km veya daha fazla
1500 m altında bulut yok ve kümülonimbus yok

METAR: OEWJ 250700Z 23004KT CAVOK 32/23 Q1003 NOSIG

Saat: 11:19 (08:19 UTC)

Tahmin

Rapor saat 23:00 UTC de 9 saat ve 19 dakika önce yapıldı.
Ayın 25'si saat 00 UTC'den ayın 26'si saat 06 UTC'ye kadar geçerli Tahmin
Rüzgar batı/kuzeybatıdan 4 kt
Görüş mesafesi 10 km veya daha fazla
1500 m altında bulut yok ve kümülonimbus yok
Dönüşüyor
ayın 25'si saat 08 UTC'den ayın 25'si saat 10 UTC'ye kadar
Rüzgar kuzey/kuzeybatıdan 14 kt
Dönüşüyor
ayın 25'si saat 18 UTC'den ayın 25'si saat 20 UTC'ye kadar
Rüzgar kuzeydan 7 kt

TAF: OEWJ 242300Z 2500/2606 30004KT CAVOK BECMG 2508/2510 34014KT BECMG 2518/2520 36007KT

4.000'den fazla havaalanı için hava durumu gözlemleri ve tahminleri (METAR ve TAF raporları).

Kullanılabilir istasyonlar harita üzerinde sarı ve kırmızı noktalarla gösterilir.

İstasyonun adını görmek için fareyi noktanın üzerinde gezdirin.

Sonrasında hava gözlem ve tahminlerini görmek için tıklayın.

Haritayı değiştirmek için: yaklaştırmak için siyah artı işaretli yeşil düğmeye ve uzaklaştırmak için de eksi işaretli düğmeye hızla tıklayın; bitişik haritalar için yeşil okları kullanın.


METAR-TAF: